Time;durP1;ratioP1;P1;durP2;ratioP2;P2;SDS_P1;SDS_P2;PMS_P1;PMS_P2;Temp;Humidity;BMP_temperature;BMP_pressure;BME280_temperature;BME280_humidity;BME280_pressure;Samples;Min_cycle;Max_cycle;Signal;HPM_P1;HPM_P2
2019/07/08 00:01:50;;;;;;;17.1;15.5;;;;;;;;;;;;;
2019/07/08 00:04:15;;;;;;;14.5;13.1;;;;;;;;;;;;;
2019/07/08 00:06:40;;;;;;;15;13.8;;;;;;;;;;;;;
2019/07/08 00:09:05;;;;;;;14.7;13.4;;;;;;;;;;;;;
2019/07/08 00:11:30;;;;;;;17.3;15.7;;;;;;;;;;;;;
2019/07/08 00:13:55;;;;;;;14.6;13.3;;;;;;;;;;;;;
2019/07/08 00:16:20;;;;;;;14.8;13.3;;;;;;;;;;;;;
2019/07/08 00:18:45;;;;;;;16.3;14.8;;;;;;;;;;;;;
2019/07/08 00:21:10;;;;;;;15;13.8;;;;;;;;;;;;;
2019/07/08 00:23:35;;;;;;;16.2;14.7;;;;;;;;;;;;;
2019/07/08 00:26:00;;;;;;;15.6;14.3;;;;;;;;;;;;;
2019/07/08 00:28:26;;;;;;;15.9;14.4;;;;;;;;;;;;;
2019/07/08 00:30:51;;;;;;;15.8;14.3;;;;;;;;;;;;;
2019/07/08 00:33:16;;;;;;;17.2;15.6;;;;;;;;;;;;;
2019/07/08 00:35:41;;;;;;;15.9;14.4;;;;;;;;;;;;;
2019/07/08 00:38:06;;;;;;;16.5;15;;;;;;;;;;;;;
2019/07/08 00:40:31;;;;;;;16.1;14.7;;;;;;;;;;;;;
2019/07/08 00:42:56;;;;;;;16.5;14.9;;;;;;;;;;;;;
2019/07/08 00:45:21;;;;;;;17.3;15.7;;;;;;;;;;;;;
2019/07/08 00:47:46;;;;;;;14.4;13.1;;;;;;;;;;;;;
2019/07/08 00:50:12;;;;;;;14;12.8;;;;;;;;;;;;;
2019/07/08 00:52:37;;;;;;;17.4;15.6;;;;;;;;;;;;;
2019/07/08 00:55:02;;;;;;;15.7;14.3;;;;;;;;;;;;;
2019/07/08 00:57:27;;;;;;;14.8;13.5;;;;;;;;;;;;;
2019/07/08 00:59:52;;;;;;;16.2;14.8;;;;;;;;;;;;;
2019/07/08 01:02:17;;;;;;;16.2;14.7;;;;;;;;;;;;;
2019/07/08 01:04:42;;;;;;;17.8;16.2;;;;;;;;;;;;;
2019/07/08 01:07:07;;;;;;;16.5;15;;;;;;;;;;;;;
2019/07/08 01:09:32;;;;;;;16.3;14.9;;;;;;;;;;;;;
2019/07/08 01:11:57;;;;;;;14.7;13.4;;;;;;;;;;;;;
2019/07/08 01:14:23;;;;;;;15.9;14.4;;;;;;;;;;;;;
2019/07/08 01:16:48;;;;;;;14.3;13.1;;;;;;;;;;;;;
2019/07/08 01:19:13;;;;;;;15.2;13.9;;;;;;;;;;;;;
2019/07/08 01:21:38;;;;;;;15.5;14;;;;;;;;;;;;;
2019/07/08 01:24:48;;;;;;;15.3;14;;;;;;;;;;;;;
2019/07/08 01:26:28;;;;;;;14.4;13.1;;;;;;;;;;;;;
2019/07/08 01:28:53;;;;;;;16.2;14.7;;;;;;;;;;;;;
2019/07/08 01:31:18;;;;;;;15.2;13.9;;;;;;;;;;;;;
2019/07/08 01:33:43;;;;;;;17.6;14.6;;;;;;;;;;;;;
2019/07/08 01:36:09;;;;;;;15.1;13.8;;;;;;;;;;;;;
2019/07/08 01:38:34;;;;;;;14.4;13.1;;;;;;;;;;;;;
2019/07/08 01:40:59;;;;;;;16.1;14.6;;;;;;;;;;;;;
2019/07/08 01:43:24;;;;;;;16.6;15;;;;;;;;;;;;;
2019/07/08 01:45:49;;;;;;;16.3;14.9;;;;;;;;;;;;;
2019/07/08 01:48:14;;;;;;;16.1;14.7;;;;;;;;;;;;;
2019/07/08 01:50:39;;;;;;;16.8;15.2;;;;;;;;;;;;;
2019/07/08 01:53:04;;;;;;;16.5;14.8;;;;;;;;;;;;;
2019/07/08 01:55:29;;;;;;;17.4;15.8;;;;;;;;;;;;;
2019/07/08 01:57:54;;;;;;;17.4;15.8;;;;;;;;;;;;;
2019/07/08 02:00:19;;;;;;;19.1;17.3;;;;;;;;;;;;;
2019/07/08 02:02:44;;;;;;;18.2;16.5;;;;;;;;;;;;;
2019/07/08 02:05:09;;;;;;;17.4;15.8;;;;;;;;;;;;;
2019/07/08 02:07:35;;;;;;;17.7;16.1;;;;;;;;;;;;;
2019/07/08 02:10:00;;;;;;;18;16.4;;;;;;;;;;;;;
2019/07/08 02:12:25;;;;;;;17.3;15.7;;;;;;;;;;;;;
2019/07/08 02:14:50;;;;;;;17.9;16.2;;;;;;;;;;;;;
2019/07/08 02:17:15;;;;;;;17.8;16.2;;;;;;;;;;;;;
2019/07/08 02:19:40;;;;;;;18;16.3;;;;;;;;;;;;;
2019/07/08 02:22:05;;;;;;;17.7;16.1;;;;;;;;;;;;;
2019/07/08 02:24:30;;;;;;;18.4;16.5;;;;;;;;;;;;;
2019/07/08 02:26:55;;;;;;;19.4;17.6;;;;;;;;;;;;;
2019/07/08 02:29:20;;;;;;;18.1;16.3;;;;;;;;;;;;;
2019/07/08 02:31:45;;;;;;;17.3;15.8;;;;;;;;;;;;;
2019/07/08 02:34:11;;;;;;;18.4;16.8;;;;;;;;;;;;;
2019/07/08 02:36:36;;;;;;;18.1;16.3;;;;;;;;;;;;;
2019/07/08 02:39:01;;;;;;;18.5;16.6;;;;;;;;;;;;;
2019/07/08 02:41:26;;;;;;;19.2;17.3;;;;;;;;;;;;;
2019/07/08 02:43:51;;;;;;;19.4;17.4;;;;;;;;;;;;;
2019/07/08 02:46:16;;;;;;;17.9;16;;;;;;;;;;;;;
2019/07/08 02:48:41;;;;;;;18.7;16.9;;;;;;;;;;;;;
2019/07/08 02:51:06;;;;;;;17.9;16.2;;;;;;;;;;;;;
2019/07/08 02:53:31;;;;;;;20.1;18;;;;;;;;;;;;;
2019/07/08 02:55:56;;;;;;;19.2;17.5;;;;;;;;;;;;;
2019/07/08 02:58:21;;;;;;;19.2;17.5;;;;;;;;;;;;;
2019/07/08 03:00:46;;;;;;;18;16.4;;;;;;;;;;;;;
2019/07/08 03:03:12;;;;;;;20.5;18.6;;;;;;;;;;;;;
2019/07/08 03:05:37;;;;;;;19.3;17.4;;;;;;;;;;;;;
2019/07/08 03:08:02;;;;;;;18.9;17.1;;;;;;;;;;;;;
2019/07/08 03:10:27;;;;;;;19.7;17.9;;;;;;;;;;;;;
2019/07/08 03:12:52;;;;;;;17.8;16.1;;;;;;;;;;;;;
2019/07/08 03:15:17;;;;;;;17.7;16.1;;;;;;;;;;;;;
2019/07/08 03:17:42;;;;;;;19.9;18.1;;;;;;;;;;;;;
2019/07/08 03:20:07;;;;;;;17.3;15.8;;;;;;;;;;;;;
2019/07/08 03:22:32;;;;;;;19.3;17.5;;;;;;;;;;;;;
2019/07/08 03:24:57;;;;;;;19.2;17.4;;;;;;;;;;;;;
2019/07/08 03:27:23;;;;;;;18.3;16.5;;;;;;;;;;;;;
2019/07/08 03:29:48;;;;;;;19.4;17.5;;;;;;;;;;;;;
2019/07/08 03:32:13;;;;;;;17.9;16.2;;;;;;;;;;;;;
2019/07/08 03:34:38;;;;;;;18.2;16.6;;;;;;;;;;;;;
2019/07/08 03:37:03;;;;;;;18.8;17;;;;;;;;;;;;;
2019/07/08 03:39:28;;;;;;;19.2;17.5;;;;;;;;;;;;;
2019/07/08 03:41:53;;;;;;;18.8;17;;;;;;;;;;;;;
2019/07/08 03:44:18;;;;;;;19.4;17.5;;;;;;;;;;;;;
2019/07/08 03:46:43;;;;;;;18.5;17;;;;;;;;;;;;;
2019/07/08 03:49:08;;;;;;;20.2;18.2;;;;;;;;;;;;;
2019/07/08 03:51:33;;;;;;;18.3;16.5;;;;;;;;;;;;;
2019/07/08 03:53:58;;;;;;;17.8;16.1;;;;;;;;;;;;;
2019/07/08 03:56:24;;;;;;;17.2;15.6;;;;;;;;;;;;;
2019/07/08 03:58:49;;;;;;;18.1;16.4;;;;;;;;;;;;;
2019/07/08 04:02:27;;;;;;;17.7;16.1;;;;;;;;;;;;;
2019/07/08 04:04:52;;;;;;;19.3;17.5;;;;;;;;;;;;;
2019/07/08 04:07:17;;;;;;;18.2;16.4;;;;;;;;;;;;;
2019/07/08 04:09:42;;;;;;;19.2;17.4;;;;;;;;;;;;;
2019/07/08 04:12:07;;;;;;;16.5;14.8;;;;;;;;;;;;;
2019/07/08 04:14:32;;;;;;;14.9;13.6;;;;;;;;;;;;;
2019/07/08 04:16:58;;;;;;;15.8;14.4;;;;;;;;;;;;;
2019/07/08 04:19:23;;;;;;;16.5;15;;;;;;;;;;;;;
2019/07/08 04:23:14;;;;;;;17.2;15.5;;;;;;;;;;;;;
2019/07/08 04:25:40;;;;;;;16.6;15.1;;;;;;;;;;;;;
2019/07/08 04:28:05;;;;;;;16;14.5;;;;;;;;;;;;;
2019/07/08 04:30:30;;;;;;;16.6;15.1;;;;;;;;;;;;;
2019/07/08 04:32:55;;;;;;;15.9;14.3;;;;;;;;;;;;;
2019/07/08 04:35:20;;;;;;;16.2;14.7;;;;;;;;;;;;;
2019/07/08 04:37:45;;;;;;;15;13.7;;;;;;;;;;;;;
2019/07/08 04:40:10;;;;;;;14.6;13.3;;;;;;;;;;;;;
2019/07/08 04:42:35;;;;;;;15.9;14.3;;;;;;;;;;;;;
2019/07/08 04:45:00;;;;;;;16.8;15.2;;;;;;;;;;;;;
2019/07/08 04:47:25;;;;;;;16.4;14.9;;;;;;;;;;;;;
2019/07/08 04:49:51;;;;;;;16.4;14.8;;;;;;;;;;;;;
2019/07/08 04:52:16;;;;;;;16;14.6;;;;;;;;;;;;;
2019/07/08 04:54:41;;;;;;;16.6;15;;;;;;;;;;;;;
2019/07/08 04:57:06;;;;;;;16.4;14.8;;;;;;;;;;;;;
2019/07/08 04:59:32;;;;;;;15.8;14.3;;;;;;;;;;;;;
2019/07/08 05:01:57;;;;;;;16.2;14.7;;;;;;;;;;;;;
2019/07/08 05:04:22;;;;;;;15.3;13.8;;;;;;;;;;;;;
2019/07/08 05:06:47;;;;;;;16.8;15.1;;;;;;;;;;;;;
2019/07/08 05:09:12;;;;;;;14.2;12.9;;;;;;;;;;;;;
2019/07/08 05:11:37;;;;;;;15.2;13.8;;;;;;;;;;;;;
2019/07/08 05:14:02;;;;;;;17.9;16.2;;;;;;;;;;;;;
2019/07/08 05:16:27;;;;;;;16.5;15;;;;;;;;;;;;;
2019/07/08 05:18:52;;;;;;;15.8;14.4;;;;;;;;;;;;;
2019/07/08 05:21:17;;;;;;;16.1;14.6;;;;;;;;;;;;;
2019/07/08 05:23:42;;;;;;;15.1;13.6;;;;;;;;;;;;;
2019/07/08 05:26:08;;;;;;;15.6;14.3;;;;;;;;;;;;;
2019/07/08 05:28:33;;;;;;;17.3;15.7;;;;;;;;;;;;;
2019/07/08 05:30:58;;;;;;;16.7;15.1;;;;;;;;;;;;;
2019/07/08 05:33:23;;;;;;;16.1;14.4;;;;;;;;;;;;;
2019/07/08 05:35:48;;;;;;;16.6;15;;;;;;;;;;;;;
2019/07/08 05:38:13;;;;;;;16.1;13.7;;;;;;;;;;;;;
2019/07/08 05:40:38;;;;;;;14.2;12.7;;;;;;;;;;;;;
2019/07/08 05:43:03;;;;;;;14.5;13.1;;;;;;;;;;;;;
2019/07/08 05:45:28;;;;;;;13.3;12.1;;;;;;;;;;;;;
2019/07/08 05:47:53;;;;;;;13.7;12.4;;;;;;;;;;;;;
2019/07/08 05:50:19;;;;;;;13.5;12.3;;;;;;;;;;;;;
2019/07/08 05:52:44;;;;;;;14.8;13.4;;;;;;;;;;;;;
2019/07/08 05:55:09;;;;;;;14.4;12.9;;;;;;;;;;;;;
2019/07/08 05:57:34;;;;;;;13.7;12.2;;;;;;;;;;;;;
2019/07/08 05:59:59;;;;;;;14;12.7;;;;;;;;;;;;;
2019/07/08 06:02:24;;;;;;;14.1;12.6;;;;;;;;;;;;;
2019/07/08 06:04:49;;;;;;;14.3;12.8;;;;;;;;;;;;;
2019/07/08 06:07:14;;;;;;;14.9;13.3;;;;;;;;;;;;;
2019/07/08 06:09:39;;;;;;;15;13.6;;;;;;;;;;;;;
2019/07/08 06:12:04;;;;;;;14;12.7;;;;;;;;;;;;;
2019/07/08 06:14:29;;;;;;;14.3;12.9;;;;;;;;;;;;;
2019/07/08 06:16:54;;;;;;;15.5;14;;;;;;;;;;;;;
2019/07/08 06:19:19;;;;;;;15.1;13.6;;;;;;;;;;;;;
2019/07/08 06:21:44;;;;;;;14.2;12.2;;;;;;;;;;;;;
2019/07/08 06:24:09;;;;;;;12.5;11.3;;;;;;;;;;;;;
2019/07/08 06:26:35;;;;;;;14.2;11.7;;;;;;;;;;;;;
2019/07/08 06:29:00;;;;;;;12.2;11;;;;;;;;;;;;;
2019/07/08 06:31:25;;;;;;;15;13.5;;;;;;;;;;;;;
2019/07/08 06:33:50;;;;;;;15.1;13.5;;;;;;;;;;;;;
2019/07/08 06:36:15;;;;;;;15;13.5;;;;;;;;;;;;;
2019/07/08 06:38:40;;;;;;;13.5;12.2;;;;;;;;;;;;;
2019/07/08 06:41:05;;;;;;;13.6;12.3;;;;;;;;;;;;;
2019/07/08 06:43:30;;;;;;;16.4;14.8;;;;;;;;;;;;;
2019/07/08 06:45:55;;;;;;;14.4;12.8;;;;;;;;;;;;;
2019/07/08 06:48:20;;;;;;;14.8;13.2;;;;;;;;;;;;;
2019/07/08 06:50:45;;;;;;;15.5;12.9;;;;;;;;;;;;;
2019/07/08 06:53:10;;;;;;;14.1;12.6;;;;;;;;;;;;;
2019/07/08 06:55:36;;;;;;;14.5;13;;;;;;;;;;;;;
2019/07/08 06:58:01;;;;;;;14;12.5;;;;;;;;;;;;;
2019/07/08 07:00:26;;;;;;;14.2;12.8;;;;;;;;;;;;;
2019/07/08 07:02:51;;;;;;;14.2;12.8;;;;;;;;;;;;;
2019/07/08 07:05:16;;;;;;;13.8;12.5;;;;;;;;;;;;;
2019/07/08 07:07:41;;;;;;;13.5;12.1;;;;;;;;;;;;;
2019/07/08 07:10:06;;;;;;;14;12.5;;;;;;;;;;;;;
2019/07/08 07:12:31;;;;;;;14;12.5;;;;;;;;;;;;;
2019/07/08 07:14:56;;;;;;;13.3;11.9;;;;;;;;;;;;;
2019/07/08 07:17:21;;;;;;;13.2;11.8;;;;;;;;;;;;;
2019/07/08 07:19:46;;;;;;;13.7;12.3;;;;;;;;;;;;;
2019/07/08 07:22:11;;;;;;;13.8;12.4;;;;;;;;;;;;;
2019/07/08 07:24:37;;;;;;;15;11.6;;;;;;;;;;;;;
2019/07/08 07:27:02;;;;;;;12.4;11.1;;;;;;;;;;;;;
2019/07/08 07:29:27;;;;;;;13.3;12;;;;;;;;;;;;;
2019/07/08 07:31:52;;;;;;;14.3;12.8;;;;;;;;;;;;;
2019/07/08 07:34:17;;;;;;;13.5;12.2;;;;;;;;;;;;;
2019/07/08 07:36:42;;;;;;;14.3;12.9;;;;;;;;;;;;;
2019/07/08 07:39:07;;;;;;;14.1;12.7;;;;;;;;;;;;;
2019/07/08 07:41:32;;;;;;;14.3;12.8;;;;;;;;;;;;;
2019/07/08 07:43:57;;;;;;;12.6;11.2;;;;;;;;;;;;;
2019/07/08 07:46:22;;;;;;;13;11.7;;;;;;;;;;;;;
2019/07/08 07:48:47;;;;;;;12.7;11.4;;;;;;;;;;;;;
2019/07/08 07:51:12;;;;;;;12;10.5;;;;;;;;;;;;;
2019/07/08 07:53:38;;;;;;;11.3;10.1;;;;;;;;;;;;;
2019/07/08 07:56:03;;;;;;;12.6;10.2;;;;;;;;;;;;;
2019/07/08 07:58:28;;;;;;;11.3;9.6;;;;;;;;;;;;;
2019/07/08 08:00:53;;;;;;;11.8;9.8;;;;;;;;;;;;;
2019/07/08 08:03:18;;;;;;;13.8;11.2;;;;;;;;;;;;;
2019/07/08 08:05:43;;;;;;;13.7;11.1;;;;;;;;;;;;;
2019/07/08 08:08:08;;;;;;;11;9.9;;;;;;;;;;;;;
2019/07/08 08:10:33;;;;;;;12.3;9.4;;;;;;;;;;;;;
2019/07/08 08:12:58;;;;;;;10.8;9.4;;;;;;;;;;;;;
2019/07/08 08:15:23;;;;;;;8.8;7.9;;;;;;;;;;;;;
2019/07/08 08:17:48;;;;;;;11.9;8;;;;;;;;;;;;;
2019/07/08 08:20:13;;;;;;;11.6;9;;;;;;;;;;;;;
2019/07/08 08:22:38;;;;;;;9.9;8.9;;;;;;;;;;;;;
2019/07/08 08:25:03;;;;;;;11.4;9.3;;;;;;;;;;;;;
2019/07/08 08:27:28;;;;;;;10.8;8;;;;;;;;;;;;;
2019/07/08 08:29:53;;;;;;;8.6;7.7;;;;;;;;;;;;;
2019/07/08 08:32:19;;;;;;;9;7.7;;;;;;;;;;;;;
2019/07/08 08:34:44;;;;;;;10.3;7.6;;;;;;;;;;;;;
2019/07/08 08:37:09;;;;;;;10;7.2;;;;;;;;;;;;;
2019/07/08 08:39:34;;;;;;;10.3;7;;;;;;;;;;;;;
2019/07/08 08:42:00;;;;;;;9.2;6.5;;;;;;;;;;;;;
2019/07/08 08:44:25;;;;;;;8.6;6.7;;;;;;;;;;;;;
2019/07/08 08:46:50;;;;;;;12.2;7.7;;;;;;;;;;;;;
2019/07/08 08:49:15;;;;;;;9.8;7.3;;;;;;;;;;;;;
2019/07/08 08:51:40;;;;;;;7.3;5.8;;;;;;;;;;;;;
2019/07/08 08:54:05;;;;;;;7.9;5.6;;;;;;;;;;;;;
2019/07/08 08:56:30;;;;;;;8.5;6.6;;;;;;;;;;;;;
2019/07/08 08:58:55;;;;;;;9.6;7.3;;;;;;;;;;;;;
2019/07/08 09:01:21;;;;;;;11.1;6.9;;;;;;;;;;;;;
2019/07/08 09:03:46;;;;;;;10.9;7.7;;;;;;;;;;;;;
2019/07/08 09:06:11;;;;;;;10.9;7.8;;;;;;;;;;;;;
2019/07/08 09:08:36;;;;;;;9.2;7.4;;;;;;;;;;;;;
2019/07/08 09:11:01;;;;;;;9.4;6.6;;;;;;;;;;;;;
2019/07/08 09:13:26;;;;;;;9.4;6.1;;;;;;;;;;;;;
2019/07/08 09:15:51;;;;;;;6.2;5.5;;;;;;;;;;;;;
2019/07/08 09:18:16;;;;;;;8.1;5.8;;;;;;;;;;;;;
2019/07/08 09:20:41;;;;;;;9.8;5.8;;;;;;;;;;;;;
2019/07/08 09:23:06;;;;;;;10.1;5.7;;;;;;;;;;;;;
2019/07/08 09:25:31;;;;;;;8.5;6.1;;;;;;;;;;;;;
2019/07/08 09:27:56;;;;;;;7.5;5.5;;;;;;;;;;;;;
2019/07/08 09:30:21;;;;;;;9.2;5.4;;;;;;;;;;;;;
2019/07/08 09:32:47;;;;;;;7;6.2;;;;;;;;;;;;;
2019/07/08 09:35:12;;;;;;;8.5;5.3;;;;;;;;;;;;;
2019/07/08 09:37:37;;;;;;;9.1;5;;;;;;;;;;;;;
2019/07/08 09:40:02;;;;;;;10.2;5.2;;;;;;;;;;;;;
2019/07/08 09:42:27;;;;;;;8.5;5.3;;;;;;;;;;;;;
2019/07/08 09:44:52;;;;;;;8.9;6;;;;;;;;;;;;;
2019/07/08 09:47:18;;;;;;;9.4;5.8;;;;;;;;;;;;;
2019/07/08 09:49:43;;;;;;;7.6;5.6;;;;;;;;;;;;;
2019/07/08 09:52:08;;;;;;;8.7;5.9;;;;;;;;;;;;;
2019/07/08 09:54:33;;;;;;;8.6;5.3;;;;;;;;;;;;;
2019/07/08 09:56:58;;;;;;;9;5.5;;;;;;;;;;;;;
2019/07/08 09:59:23;;;;;;;11.3;6.1;;;;;;;;;;;;;
2019/07/08 10:01:48;;;;;;;10.1;5.4;;;;;;;;;;;;;
2019/07/08 10:04:16;;;;;;;8.9;4.4;;;;;;;;;;;;;
2019/07/08 10:06:45;;;;;;;7;4;;;;;;;;;;;;;
2019/07/08 10:09:12;;;;;;;8.1;4.1;;;;;;;;;;;;;
2019/07/08 10:11:40;;;;;;;7.1;4.2;;;;;;;;;;;;;
2019/07/08 10:14:07;;;;;;;6.5;4.3;;;;;;;;;;;;;
2019/07/08 10:16:35;;;;;;;7.5;4.3;;;;;;;;;;;;;
2019/07/08 10:19:00;;;;;;;6.9;4.6;;;;;;;;;;;;;
2019/07/08 10:21:25;;;;;;;8.8;4.9;;;;;;;;;;;;;
2019/07/08 10:23:50;;;;;;;9.3;5;;;;;;;;;;;;;
2019/07/08 10:26:15;;;;;;;7.6;4.4;;;;;;;;;;;;;
2019/07/08 10:28:40;;;;;;;6.9;4.3;;;;;;;;;;;;;
2019/07/08 10:31:06;;;;;;;9.2;4;;;;;;;;;;;;;
2019/07/08 10:33:31;;;;;;;7.6;4.2;;;;;;;;;;;;;
2019/07/08 10:35:56;;;;;;;8.8;4.2;;;;;;;;;;;;;
2019/07/08 10:38:21;;;;;;;10.3;4.5;;;;;;;;;;;;;
2019/07/08 10:40:46;;;;;;;9.9;4.2;;;;;;;;;;;;;
2019/07/08 10:43:11;;;;;;;8;3.9;;;;;;;;;;;;;
2019/07/08 10:45:36;;;;;;;10.3;3.9;;;;;;;;;;;;;
2019/07/08 10:48:01;;;;;;;8.4;4.4;;;;;;;;;;;;;
2019/07/08 10:50:26;;;;;;;8.6;4.8;;;;;;;;;;;;;
2019/07/08 10:52:52;;;;;;;10.9;4.9;;;;;;;;;;;;;
2019/07/08 10:55:17;;;;;;;5.9;4;;;;;;;;;;;;;
2019/07/08 10:57:42;;;;;;;7.4;4.1;;;;;;;;;;;;;
2019/07/08 11:00:07;;;;;;;5.9;4;;;;;;;;;;;;;
2019/07/08 11:02:32;;;;;;;6.3;4.1;;;;;;;;;;;;;
2019/07/08 11:04:57;;;;;;;6.3;3.4;;;;;;;;;;;;;
2019/07/08 11:07:22;;;;;;;6.9;3.8;;;;;;;;;;;;;
2019/07/08 11:09:47;;;;;;;5.6;3.5;;;;;;;;;;;;;
2019/07/08 11:12:12;;;;;;;8.9;3.4;;;;;;;;;;;;;
2019/07/08 11:14:37;;;;;;;5.3;3.5;;;;;;;;;;;;;
2019/07/08 11:17:02;;;;;;;7.6;3.5;;;;;;;;;;;;;
2019/07/08 11:19:27;;;;;;;7;3.4;;;;;;;;;;;;;
2019/07/08 11:21:52;;;;;;;6.6;3;;;;;;;;;;;;;
2019/07/08 11:24:17;;;;;;;7;3;;;;;;;;;;;;;
2019/07/08 11:26:42;;;;;;;7;3.1;;;;;;;;;;;;;
2019/07/08 11:29:07;;;;;;;6.4;3.2;;;;;;;;;;;;;
2019/07/08 11:31:33;;;;;;;5.6;2.9;;;;;;;;;;;;;
2019/07/08 11:33:58;;;;;;;5.2;2.7;;;;;;;;;;;;;
2019/07/08 11:36:23;;;;;;;6.2;2.7;;;;;;;;;;;;;
2019/07/08 11:38:48;;;;;;;5.1;2.4;;;;;;;;;;;;;
2019/07/08 11:41:13;;;;;;;5.4;2.2;;;;;;;;;;;;;
2019/07/08 11:43:38;;;;;;;5.5;2.4;;;;;;;;;;;;;
2019/07/08 11:46:03;;;;;;;4.7;2.6;;;;;;;;;;;;;
2019/07/08 11:48:28;;;;;;;4.8;2.3;;;;;;;;;;;;;
2019/07/08 11:50:53;;;;;;;5.4;2.1;;;;;;;;;;;;;
2019/07/08 11:53:18;;;;;;;4.5;2.2;;;;;;;;;;;;;
2019/07/08 11:55:43;;;;;;;8.1;2.6;;;;;;;;;;;;;
2019/07/08 11:58:09;;;;;;;5.6;2.4;;;;;;;;;;;;;
2019/07/08 12:00:34;;;;;;;4.1;2.2;;;;;;;;;;;;;
2019/07/08 12:02:59;;;;;;;6.3;2.4;;;;;;;;;;;;;
2019/07/08 12:05:24;;;;;;;5;2.1;;;;;;;;;;;;;
2019/07/08 12:07:49;;;;;;;5.2;2.2;;;;;;;;;;;;;
2019/07/08 12:10:14;;;;;;;4.7;2.3;;;;;;;;;;;;;
2019/07/08 12:12:39;;;;;;;5.6;2.3;;;;;;;;;;;;;
2019/07/08 12:15:04;;;;;;;4.8;2.2;;;;;;;;;;;;;
2019/07/08 12:17:29;;;;;;;5.3;2.2;;;;;;;;;;;;;
2019/07/08 12:19:55;;;;;;;4.3;1.9;;;;;;;;;;;;;
2019/07/08 12:22:20;;;;;;;4;2;;;;;;;;;;;;;
2019/07/08 12:24:45;;;;;;;4.6;2.1;;;;;;;;;;;;;
2019/07/08 12:27:10;;;;;;;4;2;;;;;;;;;;;;;
2019/07/08 12:29:35;;;;;;;5.7;2.5;;;;;;;;;;;;;
2019/07/08 12:32:00;;;;;;;4.2;2.1;;;;;;;;;;;;;
2019/07/08 12:34:25;;;;;;;5.2;2.1;;;;;;;;;;;;;
2019/07/08 12:36:50;;;;;;;5.1;2.2;;;;;;;;;;;;;
2019/07/08 12:39:15;;;;;;;5.5;2.4;;;;;;;;;;;;;
2019/07/08 12:41:41;;;;;;;5.2;2.1;;;;;;;;;;;;;
2019/07/08 12:44:06;;;;;;;5;2;;;;;;;;;;;;;
2019/07/08 12:46:31;;;;;;;4.6;2.2;;;;;;;;;;;;;
2019/07/08 12:48:56;;;;;;;5;2.2;;;;;;;;;;;;;
2019/07/08 12:51:24;;;;;;;7;2.3;;;;;;;;;;;;;
2019/07/08 12:53:49;;;;;;;5.9;2.3;;;;;;;;;;;;;
2019/07/08 12:56:15;;;;;;;5.2;2.1;;;;;;;;;;;;;
2019/07/08 12:58:40;;;;;;;5.1;2.3;;;;;;;;;;;;;
2019/07/08 13:01:05;;;;;;;3.9;2;;;;;;;;;;;;;
2019/07/08 13:03:30;;;;;;;4.7;2.1;;;;;;;;;;;;;
2019/07/08 13:05:55;;;;;;;4.7;2.3;;;;;;;;;;;;;
2019/07/08 13:08:20;;;;;;;5.2;2.2;;;;;;;;;;;;;
2019/07/08 13:10:45;;;;;;;3.9;2.3;;;;;;;;;;;;;
2019/07/08 13:13:10;;;;;;;5.1;2.3;;;;;;;;;;;;;
2019/07/08 13:15:35;;;;;;;5.1;2.1;;;;;;;;;;;;;
2019/07/08 13:18:00;;;;;;;5;2.2;;;;;;;;;;;;;
2019/07/08 13:20:25;;;;;;;6.1;2.2;;;;;;;;;;;;;
2019/07/08 13:22:51;;;;;;;6;2.4;;;;;;;;;;;;;
2019/07/08 13:25:16;;;;;;;5.6;2.3;;;;;;;;;;;;;
2019/07/08 13:27:41;;;;;;;6.2;2.4;;;;;;;;;;;;;
2019/07/08 13:30:06;;;;;;;6.5;2;;;;;;;;;;;;;
2019/07/08 13:32:31;;;;;;;6.8;2.5;;;;;;;;;;;;;
2019/07/08 13:34:56;;;;;;;5.1;2;;;;;;;;;;;;;
2019/07/08 13:37:21;;;;;;;5.6;2.3;;;;;;;;;;;;;
2019/07/08 13:39:47;;;;;;;5.6;2.2;;;;;;;;;;;;;
2019/07/08 13:42:12;;;;;;;4.5;2.5;;;;;;;;;;;;;
2019/07/08 13:44:37;;;;;;;5.9;2.6;;;;;;;;;;;;;
2019/07/08 13:47:02;;;;;;;4.5;2.3;;;;;;;;;;;;;
2019/07/08 13:49:27;;;;;;;4.4;2.2;;;;;;;;;;;;;
2019/07/08 13:51:52;;;;;;;5.5;2.4;;;;;;;;;;;;;
2019/07/08 13:54:17;;;;;;;5.8;2.4;;;;;;;;;;;;;
2019/07/08 13:56:42;;;;;;;5.3;2.4;;;;;;;;;;;;;
2019/07/08 13:59:07;;;;;;;5.1;2.1;;;;;;;;;;;;;
2019/07/08 14:01:32;;;;;;;6;2.6;;;;;;;;;;;;;
2019/07/08 14:03:57;;;;;;;5.8;2.5;;;;;;;;;;;;;
2019/07/08 14:06:22;;;;;;;8.8;2.6;;;;;;;;;;;;;
2019/07/08 14:08:48;;;;;;;4.9;2.2;;;;;;;;;;;;;
2019/07/08 14:11:13;;;;;;;4.5;2.1;;;;;;;;;;;;;
2019/07/08 14:13:38;;;;;;;7.1;2.6;;;;;;;;;;;;;
2019/07/08 14:16:03;;;;;;;8.5;2.8;;;;;;;;;;;;;
2019/07/08 14:18:28;;;;;;;5.8;2.7;;;;;;;;;;;;;
2019/07/08 14:20:53;;;;;;;5.5;2.6;;;;;;;;;;;;;
2019/07/08 14:23:18;;;;;;;6.5;2.6;;;;;;;;;;;;;
2019/07/08 14:25:43;;;;;;;5.2;2.5;;;;;;;;;;;;;
2019/07/08 14:28:08;;;;;;;4.5;3.1;;;;;;;;;;;;;
2019/07/08 14:30:33;;;;;;;5.7;2.8;;;;;;;;;;;;;
2019/07/08 14:32:58;;;;;;;5.6;2.7;;;;;;;;;;;;;
2019/07/08 14:35:23;;;;;;;4.8;2.6;;;;;;;;;;;;;
2019/07/08 14:37:49;;;;;;;6.9;3.1;;;;;;;;;;;;;
2019/07/08 14:40:14;;;;;;;5.1;2.7;;;;;;;;;;;;;
2019/07/08 14:42:39;;;;;;;5;2.9;;;;;;;;;;;;;
2019/07/08 14:45:04;;;;;;;6.8;2.7;;;;;;;;;;;;;
2019/07/08 14:47:29;;;;;;;6.2;2.5;;;;;;;;;;;;;
2019/07/08 14:49:54;;;;;;;5.3;2.6;;;;;;;;;;;;;
2019/07/08 14:52:20;;;;;;;6.4;2.8;;;;;;;;;;;;;
2019/07/08 14:54:45;;;;;;;5.7;2.4;;;;;;;;;;;;;
2019/07/08 14:57:10;;;;;;;4.7;2.3;;;;;;;;;;;;;
2019/07/08 14:59:35;;;;;;;5.6;2.7;;;;;;;;;;;;;
2019/07/08 15:02:00;;;;;;;5.5;2.5;;;;;;;;;;;;;
2019/07/08 15:04:25;;;;;;;5.3;2.7;;;;;;;;;;;;;
2019/07/08 15:06:50;;;;;;;6.9;3;;;;;;;;;;;;;
2019/07/08 15:09:15;;;;;;;6.3;2.8;;;;;;;;;;;;;
2019/07/08 15:11:40;;;;;;;6.5;2.7;;;;;;;;;;;;;
2019/07/08 15:14:05;;;;;;;9.7;2.9;;;;;;;;;;;;;
2019/07/08 15:16:30;;;;;;;5.6;2.5;;;;;;;;;;;;;
2019/07/08 15:18:55;;;;;;;5.9;2.8;;;;;;;;;;;;;
2019/07/08 15:21:20;;;;;;;7.1;3;;;;;;;;;;;;;
2019/07/08 15:23:46;;;;;;;4.7;3;;;;;;;;;;;;;
2019/07/08 15:26:10;;;;;;;5.8;3;;;;;;;;;;;;;
2019/07/08 15:28:36;;;;;;;6.6;3.5;;;;;;;;;;;;;
2019/07/08 15:31:01;;;;;;;6.7;3.5;;;;;;;;;;;;;
2019/07/08 15:33:26;;;;;;;8.1;3.5;;;;;;;;;;;;;
2019/07/08 15:35:51;;;;;;;9;4.2;;;;;;;;;;;;;
2019/07/08 15:38:16;;;;;;;5.5;3.3;;;;;;;;;;;;;
2019/07/08 15:40:41;;;;;;;7.4;3.6;;;;;;;;;;;;;
2019/07/08 15:43:06;;;;;;;8.6;3.2;;;;;;;;;;;;;
2019/07/08 15:45:31;;;;;;;6.7;3;;;;;;;;;;;;;
2019/07/08 15:47:56;;;;;;;6.3;3.1;;;;;;;;;;;;;
2019/07/08 15:50:22;;;;;;;6.1;3.6;;;;;;;;;;;;;
2019/07/08 15:52:47;;;;;;;6.4;3.5;;;;;;;;;;;;;
2019/07/08 15:55:12;;;;;;;4.8;3.3;;;;;;;;;;;;;
2019/07/08 15:57:37;;;;;;;5.6;3.4;;;;;;;;;;;;;
2019/07/08 16:00:02;;;;;;;6.6;3.5;;;;;;;;;;;;;
2019/07/08 16:02:27;;;;;;;6.7;3.7;;;;;;;;;;;;;
2019/07/08 16:04:52;;;;;;;5.4;3.2;;;;;;;;;;;;;
2019/07/08 16:07:17;;;;;;;6.6;3.8;;;;;;;;;;;;;
2019/07/08 16:09:43;;;;;;;4.7;3.4;;;;;;;;;;;;;
2019/07/08 16:12:08;;;;;;;7.5;4.1;;;;;;;;;;;;;
2019/07/08 16:14:33;;;;;;;5.8;3.5;;;;;;;;;;;;;
2019/07/08 16:16:58;;;;;;;4.9;3.1;;;;;;;;;;;;;
2019/07/08 16:19:23;;;;;;;5.4;3.2;;;;;;;;;;;;;
2019/07/08 16:21:48;;;;;;;6.8;3.5;;;;;;;;;;;;;
2019/07/08 16:24:13;;;;;;;6.4;3.7;;;;;;;;;;;;;
2019/07/08 16:26:38;;;;;;;5.9;3.1;;;;;;;;;;;;;
2019/07/08 16:29:03;;;;;;;6.2;3.1;;;;;;;;;;;;;
2019/07/08 16:31:28;;;;;;;7.5;3.5;;;;;;;;;;;;;
2019/07/08 16:33:53;;;;;;;5.9;3.5;;;;;;;;;;;;;
2019/07/08 16:36:19;;;;;;;6.1;4.1;;;;;;;;;;;;;
2019/07/08 16:38:44;;;;;;;5.7;3.6;;;;;;;;;;;;;
2019/07/08 16:41:09;;;;;;;6.4;3.7;;;;;;;;;;;;;
2019/07/08 16:43:34;;;;;;;5.9;3.9;;;;;;;;;;;;;
2019/07/08 16:45:59;;;;;;;6.5;4.1;;;;;;;;;;;;;
2019/07/08 16:48:25;;;;;;;7.9;4.1;;;;;;;;;;;;;
2019/07/08 16:50:50;;;;;;;5.8;3.9;;;;;;;;;;;;;
2019/07/08 16:53:15;;;;;;;6.4;4.2;;;;;;;;;;;;;
2019/07/08 16:55:40;;;;;;;7.2;4.3;;;;;;;;;;;;;
2019/07/08 16:58:05;;;;;;;7.9;4;;;;;;;;;;;;;
2019/07/08 17:00:30;;;;;;;7.4;4;;;;;;;;;;;;;
2019/07/08 17:02:55;;;;;;;7;4;;;;;;;;;;;;;
2019/07/08 17:05:20;;;;;;;7;3.7;;;;;;;;;;;;;
2019/07/08 17:07:45;;;;;;;7.2;3.8;;;;;;;;;;;;;
2019/07/08 17:10:10;;;;;;;7.6;4.1;;;;;;;;;;;;;
2019/07/08 17:12:35;;;;;;;5.1;3.2;;;;;;;;;;;;;
2019/07/08 17:15:00;;;;;;;6;3.5;;;;;;;;;;;;;
2019/07/08 17:17:26;;;;;;;9.5;4.5;;;;;;;;;;;;;
2019/07/08 17:19:51;;;;;;;6.1;4.7;;;;;;;;;;;;;
2019/07/08 17:22:16;;;;;;;6.1;4.8;;;;;;;;;;;;;
2019/07/08 17:24:41;;;;;;;8.9;5.2;;;;;;;;;;;;;
2019/07/08 17:27:06;;;;;;;9.1;6.7;;;;;;;;;;;;;
2019/07/08 17:29:31;;;;;;;7.1;5.2;;;;;;;;;;;;;
2019/07/08 17:31:56;;;;;;;9.7;6.1;;;;;;;;;;;;;
2019/07/08 17:34:21;;;;;;;8.6;5.6;;;;;;;;;;;;;
2019/07/08 17:36:47;;;;;;;7.6;5.1;;;;;;;;;;;;;
2019/07/08 17:39:12;;;;;;;7.9;5;;;;;;;;;;;;;
2019/07/08 17:41:37;;;;;;;7.6;5.2;;;;;;;;;;;;;
2019/07/08 17:44:02;;;;;;;5.6;4.7;;;;;;;;;;;;;
2019/07/08 17:46:27;;;;;;;7;4.6;;;;;;;;;;;;;
2019/07/08 17:48:52;;;;;;;7;4.6;;;;;;;;;;;;;
2019/07/08 17:51:18;;;;;;;8.7;5;;;;;;;;;;;;;
2019/07/08 17:53:43;;;;;;;6.8;4.9;;;;;;;;;;;;;
2019/07/08 17:56:08;;;;;;;7.8;5.2;;;;;;;;;;;;;
2019/07/08 17:58:33;;;;;;;7.2;4.5;;;;;;;;;;;;;
2019/07/08 18:00:58;;;;;;;8.4;4.5;;;;;;;;;;;;;
2019/07/08 18:03:24;;;;;;;8;4.4;;;;;;;;;;;;;
2019/07/08 18:05:48;;;;;;;7.8;4.7;;;;;;;;;;;;;
2019/07/08 18:08:14;;;;;;;15.1;8;;;;;;;;;;;;;
2019/07/08 18:10:39;;;;;;;12;6.9;;;;;;;;;;;;;
2019/07/08 18:13:04;;;;;;;10.3;6.2;;;;;;;;;;;;;
2019/07/08 18:15:29;;;;;;;9.2;5.7;;;;;;;;;;;;;
2019/07/08 18:17:54;;;;;;;8.9;5.2;;;;;;;;;;;;;
2019/07/08 18:20:19;;;;;;;7.3;4.8;;;;;;;;;;;;;
2019/07/08 18:22:44;;;;;;;8.3;5;;;;;;;;;;;;;
2019/07/08 18:25:09;;;;;;;6.8;4.5;;;;;;;;;;;;;
2019/07/08 18:27:35;;;;;;;7.8;5.1;;;;;;;;;;;;;
2019/07/08 18:30:00;;;;;;;6.7;4.6;;;;;;;;;;;;;
2019/07/08 18:32:25;;;;;;;8.1;4.7;;;;;;;;;;;;;
2019/07/08 18:34:50;;;;;;;10.2;5.3;;;;;;;;;;;;;
2019/07/08 18:37:15;;;;;;;6.7;4.6;;;;;;;;;;;;;
2019/07/08 18:39:40;;;;;;;7.3;5;;;;;;;;;;;;;
2019/07/08 18:42:05;;;;;;;7.2;4.9;;;;;;;;;;;;;
2019/07/08 18:44:31;;;;;;;6.9;4.5;;;;;;;;;;;;;
2019/07/08 18:46:56;;;;;;;6;4.3;;;;;;;;;;;;;
2019/07/08 18:49:21;;;;;;;7.6;4.5;;;;;;;;;;;;;
2019/07/08 18:51:46;;;;;;;7.8;4.9;;;;;;;;;;;;;
2019/07/08 18:54:11;;;;;;;8.4;4.4;;;;;;;;;;;;;
2019/07/08 18:56:36;;;;;;;9.5;5;;;;;;;;;;;;;
2019/07/08 18:59:01;;;;;;;7.5;4.5;;;;;;;;;;;;;
2019/07/08 19:01:26;;;;;;;6.8;4.6;;;;;;;;;;;;;
2019/07/08 19:03:52;;;;;;;6.1;3.9;;;;;;;;;;;;;
2019/07/08 19:06:17;;;;;;;8.3;4.8;;;;;;;;;;;;;
2019/07/08 19:08:42;;;;;;;7.8;4.7;;;;;;;;;;;;;
2019/07/08 19:11:07;;;;;;;6.8;4.6;;;;;;;;;;;;;
2019/07/08 19:13:32;;;;;;;6.5;4.9;;;;;;;;;;;;;
2019/07/08 19:15:57;;;;;;;7.3;5.3;;;;;;;;;;;;;
2019/07/08 19:18:22;;;;;;;12.1;6.7;;;;;;;;;;;;;
2019/07/08 19:20:47;;;;;;;9.3;5.3;;;;;;;;;;;;;
2019/07/08 19:23:12;;;;;;;8.7;5.1;;;;;;;;;;;;;
2019/07/08 19:25:37;;;;;;;7.9;5.3;;;;;;;;;;;;;
2019/07/08 19:28:02;;;;;;;8.3;5;;;;;;;;;;;;;
2019/07/08 19:30:27;;;;;;;8.5;5.8;;;;;;;;;;;;;
2019/07/08 19:32:53;;;;;;;6.7;5.3;;;;;;;;;;;;;
2019/07/08 19:35:18;;;;;;;10.2;6.1;;;;;;;;;;;;;
2019/07/08 19:37:43;;;;;;;8.1;5;;;;;;;;;;;;;
2019/07/08 19:40:08;;;;;;;8;5.5;;;;;;;;;;;;;
2019/07/08 19:42:33;;;;;;;9.5;5.9;;;;;;;;;;;;;
2019/07/08 19:44:58;;;;;;;7.3;5.9;;;;;;;;;;;;;
2019/07/08 19:47:23;;;;;;;8.4;6.6;;;;;;;;;;;;;
2019/07/08 19:49:48;;;;;;;9;7.2;;;;;;;;;;;;;
2019/07/08 19:52:14;;;;;;;9.8;7.7;;;;;;;;;;;;;
2019/07/08 19:54:39;;;;;;;9.9;8.1;;;;;;;;;;;;;
2019/07/08 19:57:04;;;;;;;9.6;7.4;;;;;;;;;;;;;
2019/07/08 19:59:29;;;;;;;10.3;8.7;;;;;;;;;;;;;
2019/07/08 20:01:54;;;;;;;10.2;8.8;;;;;;;;;;;;;
2019/07/08 20:04:19;;;;;;;14.7;10.4;;;;;;;;;;;;;
2019/07/08 20:06:44;;;;;;;10.4;8.7;;;;;;;;;;;;;
2019/07/08 20:09:10;;;;;;;9.6;8.6;;;;;;;;;;;;;
2019/07/08 20:11:35;;;;;;;10.9;8.4;;;;;;;;;;;;;
2019/07/08 20:14:00;;;;;;;10.9;8.7;;;;;;;;;;;;;